Time;durP1;ratioP1;P1;durP2;ratioP2;P2;SDS_P1;SDS_P2;PMS_P1;PMS_P2;Temp;Humidity;BMP_temperature;BMP_pressure;BME280_temperature;BME280_humidity;BME280_pressure;Samples;Min_cycle;Max_cycle;Signal;HPM_P1;HPM_P2
2021/10/21 00:01:43;;;;;;;7.72;6.85;;;14.50;99.90;;;;;;5020893;28;20236;-47
2021/10/21 00:04:12;;;;;;;6.88;5.90;;;14.60;99.90;;;;;;5017101;28;20226;-48
2021/10/21 00:06:39;;;;;;;8.40;6.80;;;14.50;99.90;;;;;;5021389;28;20206;-48
2021/10/21 00:09:07;;;;;;;8.00;6.60;;;14.50;99.90;;;;;;5020385;28;20198;-43
2021/10/21 00:11:35;;;;;;;6.90;6.20;;;14.50;99.90;;;;;;5021270;28;20259;-48
2021/10/21 00:14:07;;;;;;;7.38;6.68;;;14.40;99.90;;;;;;5018836;28;20213;-50
2021/10/21 00:16:34;;;;;;;6.40;5.90;;;14.30;99.90;;;;;;5021246;28;20205;-42
2021/10/21 00:19:01;;;;;;;7.80;6.13;;;14.30;99.90;;;;;;5020355;28;20205;-48
2021/10/21 00:21:29;;;;;;;8.00;6.85;;;14.30;99.90;;;;;;5021012;28;20228;-46
2021/10/21 00:23:56;;;;;;;8.20;6.60;;;14.40;99.90;;;;;;5020660;28;20221;-48
2021/10/21 00:26:23;;;;;;;6.85;6.32;;;14.30;99.90;;;;;;5019359;28;20466;-46
2021/10/21 00:28:51;;;;;;;9.23;8.23;;;14.40;99.90;;;;;;5020737;28;20387;-50
2021/10/21 00:31:19;;;;;;;7.68;6.90;;;14.40;99.90;;;;;;5020321;28;20424;-45
2021/10/21 00:33:47;;;;;;;9.02;7.65;;;14.40;99.90;;;;;;5020601;28;20345;-49
2021/10/21 00:36:14;;;;;;;7.45;6.85;;;14.40;99.90;;;;;;5020447;28;20209;-51
2021/10/21 00:38:41;;;;;;;7.55;6.80;;;14.40;99.90;;;;;;5020616;28;20379;-52
2021/10/21 00:41:08;;;;;;;6.72;6.20;;;14.40;99.90;;;;;;5015524;28;20539;-47
2021/10/21 00:43:37;;;;;;;7.05;6.35;;;14.50;99.90;;;;;;5046436;22;20278;-47
2021/10/21 00:46:09;;;;;;;8.63;7.55;;;14.50;99.90;;;;;;5034051;28;20213;-47
2021/10/21 00:48:38;;;;;;;9.48;6.97;;;14.40;99.90;;;;;;5027267;28;20201;-47
2021/10/21 00:51:10;;;;;;;8.00;7.20;;;14.40;99.90;;;;;;5033796;28;20250;-46
2021/10/21 00:53:38;;;;;;;7.93;7.20;;;14.40;99.90;;;;;;5033594;28;20248;-49
2021/10/21 00:56:08;;;;;;;7.95;6.65;;;14.50;99.90;;;;;;5030383;28;20205;-49
2021/10/21 00:58:36;;;;;;;9.90;7.15;;;14.40;99.90;;;;;;5034991;28;20543;-47
2021/10/21 01:01:05;;;;;;;6.88;6.38;;;14.40;99.90;;;;;;5030576;28;20222;-47
2021/10/21 01:03:33;;;;;;;7.32;6.72;;;14.40;99.90;;;;;;5036877;28;20229;-48
2021/10/21 01:06:00;;;;;;;8.15;7.35;;;14.40;99.90;;;;;;5030926;28;20272;-48
2021/10/21 01:08:28;;;;;;;7.15;6.55;;;14.50;99.90;;;;;;5031743;28;20199;-46
2021/10/21 01:10:55;;;;;;;13.15;8.00;;;14.60;99.90;;;;;;5032751;28;20264;-44
2021/10/21 01:13:22;;;;;;;6.85;6.25;;;14.50;99.90;;;;;;5023310;28;20504;-48
2021/10/21 01:16:08;;;;;;;7.38;6.68;;;14.60;99.90;;;;;;5024961;28;20201;-46
2021/10/21 01:18:36;;;;;;;7.45;6.80;;;14.50;99.90;;;;;;5020928;28;20251;-49
2021/10/21 01:21:04;;;;;;;7.47;6.75;;;14.40;99.90;;;;;;5036032;28;20247;-50
2021/10/21 01:23:33;;;;;;;7.43;6.80;;;14.70;99.90;;;;;;5026649;28;20577;-46
2021/10/21 01:26:00;;;;;;;8.60;7.47;;;14.80;99.90;;;;;;5035609;28;20270;-47
2021/10/21 01:28:27;;;;;;;7.28;6.47;;;14.90;99.90;;;;;;5033011;28;20750;-50
2021/10/21 01:30:55;;;;;;;8.60;7.50;;;14.90;99.90;;;;;;5036141;28;20220;-48
2021/10/21 01:33:22;;;;;;;8.40;6.18;;;14.90;99.90;;;;;;5035742;28;20226;-51
2021/10/21 01:35:49;;;;;;;7.13;6.50;;;14.80;99.90;;;;;;5029388;28;20206;-48
2021/10/21 01:38:17;;;;;;;7.45;6.68;;;14.80;99.90;;;;;;5037073;28;20200;-48
2021/10/21 01:40:44;;;;;;;7.80;6.63;;;14.80;99.90;;;;;;5029170;28;20621;-46
2021/10/21 01:43:13;;;;;;;7.15;6.55;;;14.80;99.90;;;;;;5037808;28;20231;-50
2021/10/21 01:45:40;;;;;;;7.75;5.40;;;14.80;99.90;;;;;;5031627;28;20198;-50
2021/10/21 01:48:07;;;;;;;7.85;7.07;;;14.80;99.90;;;;;;5022253;28;20396;-47
2021/10/21 01:50:35;;;;;;;7.65;6.85;;;14.80;99.90;;;;;;5035657;28;20526;-49
2021/10/21 01:53:02;;;;;;;7.85;7.15;;;14.90;99.90;;;;;;5025851;28;20251;-50
2021/10/21 01:55:29;;;;;;;7.28;6.65;;;15.00;99.90;;;;;;5036400;28;20206;-49
2021/10/21 01:57:56;;;;;;;7.07;6.40;;;15.10;99.90;;;;;;5034699;28;20247;-52
2021/10/21 02:00:25;;;;;;;7.78;7.00;;;15.10;99.90;;;;;;5029145;28;20237;-48
2021/10/21 02:02:52;;;;;;;6.43;5.82;;;15.10;99.90;;;;;;5037461;28;20268;-47
2021/10/21 02:05:20;;;;;;;8.05;6.20;;;15.10;99.90;;;;;;5025341;28;20213;-46
2021/10/21 02:07:48;;;;;;;6.93;6.13;;;15.10;99.90;;;;;;5037905;28;20214;-46
2021/10/21 02:10:18;;;;;;;7.70;6.90;;;15.20;99.90;;;;;;5039607;28;20213;-48
2021/10/21 02:12:47;;;;;;;6.80;6.20;;;15.40;99.90;;;;;;5029765;28;20194;-46
2021/10/21 02:15:15;;;;;;;7.10;6.40;;;15.40;99.90;;;;;;5041920;28;20440;-45
2021/10/21 02:17:42;;;;;;;7.10;6.50;;;15.60;99.90;;;;;;5035273;28;20504;-47
2021/10/21 02:20:10;;;;;;;7.43;6.22;;;15.70;99.90;;;;;;5033555;28;20203;-49
2021/10/21 02:22:38;;;;;;;7.80;7.20;;;15.80;99.90;;;;;;5037670;28;20230;-49
2021/10/21 02:25:07;;;;;;;8.52;6.85;;;15.90;99.90;;;;;;5033650;28;20252;-49
2021/10/21 02:27:34;;;;;;;8.95;7.40;;;15.70;99.90;;;;;;5037525;28;20249;-48
2021/10/21 02:30:01;;;;;;;9.87;7.87;;;15.80;99.90;;;;;;5031263;28;20263;-49
2021/10/21 02:32:28;;;;;;;7.00;6.43;;;15.70;99.90;;;;;;5038856;28;20694;-45
2021/10/21 02:34:56;;;;;;;8.15;6.53;;;15.70;99.90;;;;;;5023245;28;20268;-45
2021/10/21 02:37:23;;;;;;;6.80;6.10;;;15.50;99.90;;;;;;5031030;28;20259;-50
2021/10/21 02:39:50;;;;;;;8.73;6.45;;;15.70;99.90;;;;;;5034047;28;20448;-45
2021/10/21 02:42:18;;;;;;;7.80;7.10;;;15.80;99.90;;;;;;5033564;28;20228;-47
2021/10/21 02:44:45;;;;;;;8.30;7.70;;;15.50;99.90;;;;;;5036262;28;20458;-46
2021/10/21 02:47:13;;;;;;;7.60;6.90;;;15.40;99.90;;;;;;5034059;28;20462;-46
2021/10/21 02:49:40;;;;;;;7.60;6.90;;;15.40;99.90;;;;;;5038635;28;20255;-47
2021/10/21 02:52:07;;;;;;;8.25;7.45;;;15.40;99.90;;;;;;5034253;28;20471;-50
2021/10/21 02:54:34;;;;;;;9.00;7.75;;;15.40;99.90;;;;;;5041220;28;20226;-47
2021/10/21 02:57:02;;;;;;;7.50;6.80;;;15.30;99.90;;;;;;5034343;28;20512;-46
2021/10/21 02:59:29;;;;;;;7.43;6.90;;;15.30;99.90;;;;;;5034637;28;20488;-49
2021/10/21 03:01:56;;;;;;;9.23;8.27;;;15.30;99.90;;;;;;5031726;28;20246;-49
2021/10/21 03:04:24;;;;;;;10.60;7.63;;;15.30;99.90;;;;;;5029652;28;20450;-48
2021/10/21 03:06:51;;;;;;;9.93;7.47;;;15.30;99.90;;;;;;5036445;28;20523;-48
2021/10/21 03:09:18;;;;;;;8.23;7.10;;;15.30;99.90;;;;;;5035787;28;20412;-52
2021/10/21 03:11:45;;;;;;;7.43;6.73;;;15.30;99.90;;;;;;5032135;28;20214;-50
2021/10/21 03:14:12;;;;;;;8.15;7.22;;;15.30;99.90;;;;;;5035939;28;20723;-50
2021/10/21 03:16:39;;;;;;;32.33;8.95;;;15.30;99.90;;;;;;5034308;28;20253;-50
2021/10/21 03:19:08;;;;;;;7.27;6.57;;;15.30;99.90;;;;;;5035023;28;20206;-49
2021/10/21 03:21:36;;;;;;;9.77;8.73;;;15.30;99.90;;;;;;5034955;28;20664;-47
2021/10/21 03:24:03;;;;;;;9.33;6.90;;;15.40;99.90;;;;;;5036761;28;20452;-48
2021/10/21 03:26:30;;;;;;;8.00;7.27;;;15.40;99.90;;;;;;5035363;28;20443;-47
2021/10/21 03:28:57;;;;;;;8.13;7.28;;;15.40;99.90;;;;;;5030398;28;20763;-52
2021/10/21 03:31:29;;;;;;;7.70;7.07;;;15.40;99.90;;;;;;5036336;28;20214;-51
2021/10/21 03:33:56;;;;;;;17.77;6.95;;;15.50;99.90;;;;;;5032259;28;20492;-48
2021/10/21 03:36:24;;;;;;;9.07;7.67;;;15.50;99.90;;;;;;5036810;28;20321;-51
2021/10/21 03:38:51;;;;;;;8.17;7.10;;;15.50;99.90;;;;;;5033842;28;20493;-48
2021/10/21 03:41:19;;;;;;;10.60;7.23;;;15.40;99.90;;;;;;5021830;28;20516;-47
2021/10/21 03:43:47;;;;;;;10.07;9.10;;;15.40;99.90;;;;;;5035203;28;20824;-49
2021/10/21 03:46:14;;;;;;;8.23;7.43;;;15.40;99.90;;;;;;5032272;28;20471;-48
2021/10/21 03:48:41;;;;;;;7.90;6.80;;;15.40;99.90;;;;;;5037300;28;20201;-50
2021/10/21 03:51:09;;;;;;;8.23;7.40;;;15.40;99.90;;;;;;5033987;28;20443;-52
2021/10/21 03:53:37;;;;;;;7.90;7.20;;;15.40;99.90;;;;;;5036663;28;20230;-49
2021/10/21 03:56:04;;;;;;;7.23;6.53;;;15.50;99.90;;;;;;5023229;28;20685;-49
2021/10/21 03:58:31;;;;;;;7.53;6.83;;;15.50;99.90;;;;;;5017852;28;20486;-49
2021/10/21 04:00:58;;;;;;;8.20;7.50;;;15.40;99.90;;;;;;5011800;28;20486;-48
2021/10/21 04:03:25;;;;;;;7.43;6.73;;;15.40;99.90;;;;;;5015505;28;20493;-49
2021/10/21 04:05:52;;;;;;;9.00;6.50;;;15.50;99.90;;;;;;5012166;28;20437;-50
2021/10/21 04:08:19;;;;;;;7.97;7.17;;;15.50;99.90;;;;;;5018865;28;20447;-46
2021/10/21 04:10:47;;;;;;;7.97;7.13;;;15.50;99.90;;;;;;5023213;28;20625;-50
2021/10/21 04:13:14;;;;;;;10.33;9.43;;;15.60;99.90;;;;;;5039603;28;20472;-47
2021/10/21 04:15:41;;;;;;;7.65;6.95;;;15.60;99.90;;;;;;5032836;28;20436;-47
2021/10/21 04:18:09;;;;;;;9.23;8.40;;;15.70;99.90;;;;;;5030650;28;20202;-49
2021/10/21 04:20:37;;;;;;;11.30;8.53;;;15.60;99.90;;;;;;5036548;28;20610;-52
2021/10/21 04:23:04;;;;;;;9.10;8.25;;;15.60;99.90;;;;;;5031574;28;20615;-50
2021/10/21 04:25:31;;;;;;;9.97;9.07;;;15.10;99.90;;;;;;5034955;28;20451;-50
2021/10/21 04:27:58;;;;;;;9.63;8.63;;;14.60;99.90;;;;;;5031797;28;20432;-54
2021/10/21 04:30:25;;;;;;;9.50;8.50;;;14.30;99.90;;;;;;5040178;28;20194;-50
2021/10/21 04:32:53;;;;;;;10.23;9.20;;;14.10;99.90;;;;;;5032724;28;20267;-50
2021/10/21 04:35:20;;;;;;;10.80;9.52;;;13.80;99.90;;;;;;5024869;28;20205;-53
2021/10/21 04:37:48;;;;;;;12.10;10.23;;;13.70;99.90;;;;;;5034338;28;20347;-51
2021/10/21 04:40:15;;;;;;;11.77;10.65;;;13.60;99.90;;;;;;5032319;28;20201;-52
2021/10/21 04:42:42;;;;;;;12.75;10.00;;;13.70;99.90;;;;;;5032261;28;20271;-50
2021/10/21 04:45:10;;;;;;;16.38;10.48;;;13.60;99.90;;;;;;5023249;28;20197;-50
2021/10/21 04:47:37;;;;;;;10.73;9.65;;;13.50;99.90;;;;;;5018161;28;20436;-51
2021/10/21 04:50:05;;;;;;;15.88;10.27;;;13.50;99.90;;;;;;5020505;28;20212;-51
2021/10/21 04:52:32;;;;;;;12.40;10.90;;;13.50;99.90;;;;;;5033304;28;20216;-50
2021/10/21 04:54:59;;;;;;;12.43;10.55;;;13.40;99.90;;;;;;5024952;28;20208;-49
2021/10/21 04:57:26;;;;;;;12.13;10.90;;;13.50;99.90;;;;;;5020524;28;20213;-50
2021/10/21 04:59:53;;;;;;;12.05;10.15;;;13.50;99.90;;;;;;5018612;28;20508;-48
2021/10/21 05:02:20;;;;;;;12.13;9.88;;;13.60;99.90;;;;;;5019823;28;20223;-48
2021/10/21 05:04:48;;;;;;;12.52;11.15;;;13.70;99.90;;;;;;5026948;28;20286;-48
2021/10/21 05:07:15;;;;;;;12.73;9.95;;;13.70;99.90;;;;;;5035425;28;20634;-52
2021/10/21 05:09:42;;;;;;;12.68;11.32;;;13.70;99.90;;;;;;5028922;28;20356;-50
2021/10/21 05:12:09;;;;;;;11.63;10.18;;;13.90;99.90;;;;;;5029767;28;20263;-50
2021/10/21 05:14:36;;;;;;;11.10;9.65;;;13.90;99.90;;;;;;5034677;28;20232;-49
2021/10/21 05:17:03;;;;;;;13.48;10.90;;;14.00;99.90;;;;;;5031197;28;20204;-52
2021/10/21 05:19:31;;;;;;;12.45;9.93;;;14.00;99.90;;;;;;5032070;28;20207;-53
2021/10/21 05:21:58;;;;;;;12.25;10.27;;;14.10;99.90;;;;;;5032674;28;20232;-48
2021/10/21 05:24:25;;;;;;;12.90;11.43;;;14.20;99.90;;;;;;5036444;28;20220;-47
2021/10/21 05:26:52;;;;;;;11.30;9.88;;;14.20;99.90;;;;;;5034518;28;20200;-48
2021/10/21 05:29:20;;;;;;;11.80;10.63;;;14.10;99.90;;;;;;5031842;28;20208;-50
2021/10/21 05:31:47;;;;;;;11.75;10.35;;;14.20;99.90;;;;;;5038919;28;20384;-52
2021/10/21 05:34:15;;;;;;;12.70;10.68;;;14.20;99.90;;;;;;5034914;28;20428;-47
2021/10/21 05:36:42;;;;;;;13.80;11.00;;;14.30;99.90;;;;;;5039650;28;20274;-52
2021/10/21 05:39:09;;;;;;;13.05;11.10;;;14.20;99.90;;;;;;5027296;28;20239;-50
2021/10/21 05:41:37;;;;;;;11.05;9.93;;;14.10;99.90;;;;;;5026819;28;20278;-48
2021/10/21 05:44:04;;;;;;;13.07;10.25;;;14.10;99.90;;;;;;5034267;28;20228;-50
2021/10/21 05:46:32;;;;;;;12.00;10.25;;;14.10;99.90;;;;;;5025577;28;20219;-50
2021/10/21 05:48:59;;;;;;;11.63;10.43;;;14.10;99.90;;;;;;5029717;28;20197;-50
2021/10/21 05:51:27;;;;;;;13.48;11.20;;;14.10;99.90;;;;;;5029917;28;20525;-49
2021/10/21 05:53:54;;;;;;;12.65;11.45;;;14.20;99.90;;;;;;5036090;28;20217;-49
2021/10/21 05:56:21;;;;;;;11.00;9.90;;;14.20;99.90;;;;;;5023076;28;20199;-50
2021/10/21 05:58:49;;;;;;;12.63;9.45;;;14.20;99.90;;;;;;5023508;28;20235;-47
2021/10/21 06:01:16;;;;;;;13.50;10.80;;;14.30;99.90;;;;;;5032971;28;20204;-51
2021/10/21 06:03:44;;;;;;;11.85;9.65;;;14.20;99.90;;;;;;5027146;28;20239;-49
2021/10/21 06:06:12;;;;;;;18.30;14.07;;;14.20;99.90;;;;;;5032901;28;20420;-47
2021/10/21 06:08:39;;;;;;;20.25;14.23;;;14.20;99.90;;;;;;5030051;28;20434;-48
2021/10/21 06:11:08;;;;;;;15.32;12.65;;;14.30;99.90;;;;;;5032915;28;20532;-47
2021/10/21 06:13:35;;;;;;;15.50;11.00;;;14.50;99.90;;;;;;5032868;28;20628;-47
2021/10/21 06:16:04;;;;;;;11.93;10.73;;;14.60;99.90;;;;;;5025577;28;20212;-51
2021/10/21 06:18:32;;;;;;;12.75;10.95;;;14.60;99.90;;;;;;5031859;28;20205;-46
2021/10/21 06:21:00;;;;;;;14.70;11.18;;;14.60;99.90;;;;;;5026991;28;20205;-47
2021/10/21 06:23:28;;;;;;;13.52;10.00;;;14.50;99.90;;;;;;5038197;28;20504;-48
2021/10/21 06:25:56;;;;;;;11.55;10.38;;;14.50;99.90;;;;;;5028212;28;20442;-50
2021/10/21 06:28:28;;;;;;;11.07;9.93;;;14.40;99.90;;;;;;5031704;28;20197;-48
2021/10/21 06:30:55;;;;;;;11.65;9.68;;;14.40;99.90;;;;;;5025883;28;20209;-49
2021/10/21 06:33:23;;;;;;;11.73;9.18;;;14.40;99.90;;;;;;5020561;28;20232;-52
2021/10/21 06:35:50;;;;;;;12.68;11.38;;;14.30;99.90;;;;;;5029191;28;20246;-49
2021/10/21 06:38:17;;;;;;;12.68;10.50;;;14.30;99.90;;;;;;5028201;28;20209;-50
2021/10/21 06:40:44;;;;;;;13.13;11.25;;;14.30;99.90;;;;;;5036802;28;20271;-48
2021/10/21 06:43:11;;;;;;;10.85;9.75;;;14.20;99.90;;;;;;5044685;22;20271;-58
2021/10/21 06:45:39;;;;;;;11.68;10.48;;;14.20;99.90;;;;;;4999008;28;20225;-56
2021/10/21 06:48:06;;;;;;;11.23;9.95;;;14.20;99.90;;;;;;5000112;28;20236;-54
2021/10/21 06:50:33;;;;;;;11.70;10.45;;;14.30;99.90;;;;;;5002746;28;20201;-51
2021/10/21 06:53:00;;;;;;;13.55;11.80;;;14.20;99.90;;;;;;4999009;28;20208;-54
2021/10/21 06:55:27;;;;;;;13.10;11.60;;;14.20;99.90;;;;;;4991783;28;20226;-55
2021/10/21 06:57:59;;;;;;;14.23;12.57;;;14.20;99.90;;;;;;4991091;28;20205;-51
2021/10/21 07:00:28;;;;;;;12.88;11.45;;;14.20;99.90;;;;;;4997292;28;20209;-56
2021/10/21 07:02:57;;;;;;;13.70;12.30;;;14.20;99.90;;;;;;4999238;28;20297;-51
2021/10/21 07:05:27;;;;;;;15.27;11.63;;;14.20;99.90;;;;;;4990531;28;20258;-53
2021/10/21 07:07:54;;;;;;;13.50;12.10;;;14.20;99.90;;;;;;4999430;28;20201;-58
2021/10/21 07:10:24;;;;;;;14.95;12.70;;;14.10;99.90;;;;;;4991509;28;20199;-54
2021/10/21 07:12:51;;;;;;;22.10;13.65;;;14.10;99.90;;;;;;4993268;28;20229;-55
2021/10/21 07:15:18;;;;;;;20.33;13.07;;;14.10;99.90;;;;;;4994232;28;20269;-53
2021/10/21 07:17:45;;;;;;;13.30;12.10;;;14.10;99.90;;;;;;4996013;28;20214;-59
2021/10/21 07:20:14;;;;;;;17.23;13.00;;;14.10;99.90;;;;;;5001307;28;20268;-55
2021/10/21 07:22:42;;;;;;;20.85;13.50;;;14.10;99.90;;;;;;4998190;28;20318;-56
2021/10/21 07:25:10;;;;;;;17.42;14.98;;;14.10;99.90;;;;;;5000117;28;20419;-50
2021/10/21 07:27:37;;;;;;;16.42;13.25;;;14.10;99.90;;;;;;4992628;28;20202;-55
2021/10/21 07:30:10;;;;;;;22.77;13.02;;;14.00;99.90;;;;;;4997458;28;20209;-51
2021/10/21 07:32:38;;;;;;;16.40;12.55;;;14.00;99.90;;;;;;4984822;28;20469;-50
2021/10/21 07:35:06;;;;;;;11.85;10.65;;;14.10;99.90;;;;;;4996963;28;20600;-53
2021/10/21 07:37:34;;;;;;;15.32;12.95;;;14.10;99.90;;;;;;4995184;28;20202;-53
2021/10/21 07:40:03;;;;;;;15.40;13.25;;;14.10;99.90;;;;;;4999434;28;20205;-53
2021/10/21 07:42:31;;;;;;;12.90;11.70;;;14.10;99.90;;;;;;4992493;28;20225;-55
2021/10/21 07:44:58;;;;;;;13.15;11.75;;;14.10;99.90;;;;;;4982372;28;20260;-51
2021/10/21 07:47:26;;;;;;;12.93;11.68;;;14.10;99.90;;;;;;5000312;28;20201;-55
2021/10/21 07:49:53;;;;;;;14.52;12.90;;;14.10;99.90;;;;;;4982790;28;20447;-52
2021/10/21 07:52:22;;;;;;;12.20;11.05;;;14.10;99.90;;;;;;4985026;28;20335;-55
2021/10/21 07:54:49;;;;;;;15.48;12.13;;;14.20;99.90;;;;;;4985930;28;20226;-54
2021/10/21 07:57:20;;;;;;;14.07;12.60;;;14.20;99.90;;;;;;4985311;28;20206;-52
2021/10/21 07:59:48;;;;;;;14.35;10.68;;;14.20;99.90;;;;;;4990246;28;20282;-55
2021/10/21 08:02:16;;;;;;;15.30;11.55;;;14.20;99.90;;;;;;4996933;28;20277;-53
2021/10/21 08:04:48;;;;;;;12.27;11.00;;;14.20;99.90;;;;;;4995372;28;20248;-53
2021/10/21 08:07:16;;;;;;;14.52;13.13;;;14.30;99.90;;;;;;4997816;28;20436;-51
2021/10/21 08:09:43;;;;;;;14.60;12.75;;;14.20;99.90;;;;;;4990697;28;20299;-54
2021/10/21 08:12:10;;;;;;;15.25;10.93;;;14.20;99.90;;;;;;4989460;28;20203;-57
2021/10/21 08:14:38;;;;;;;14.80;13.30;;;14.30;99.90;;;;;;4992879;28;20287;-57
2021/10/21 08:17:05;;;;;;;13.38;11.32;;;14.30;99.90;;;;;;4985799;28;20201;-52
2021/10/21 08:19:33;;;;;;;11.57;10.15;;;14.50;99.90;;;;;;4997238;28;20271;-54
2021/10/21 08:22:02;;;;;;;16.20;13.35;;;14.50;99.90;;;;;;4988894;28;20206;-52
2021/10/21 08:24:29;;;;;;;10.90;9.80;;;14.60;99.90;;;;;;4997542;28;20548;-53
2021/10/21 08:26:56;;;;;;;11.93;10.00;;;14.80;99.90;;;;;;4995693;28;20205;-50
2021/10/21 08:29:24;;;;;;;11.27;10.10;;;14.90;99.90;;;;;;4983763;28;20205;-50
2021/10/21 08:32:03;;;;;;;11.10;9.95;;;15.00;99.90;;;;;;4996099;28;20201;-51
2021/10/21 08:34:32;;;;;;;13.00;9.80;;;15.00;99.90;;;;;;4985630;28;20252;-55
2021/10/21 08:37:00;;;;;;;11.90;8.95;;;15.00;99.90;;;;;;4995601;28;20442;-55
2021/10/21 08:39:34;;;;;;;11.82;9.98;;;15.00;99.90;;;;;;4984664;28;20191;-55
2021/10/21 08:42:03;;;;;;;11.35;10.05;;;15.10;99.90;;;;;;4994709;28;20210;-56
2021/10/21 08:44:36;;;;;;;12.35;9.60;;;15.10;99.90;;;;;;4987200;28;20244;-52
2021/10/21 08:47:05;;;;;;;11.88;9.52;;;15.20;99.90;;;;;;4996981;28;20513;-57
2021/10/21 08:49:35;;;;;;;11.15;9.95;;;15.30;99.90;;;;;;4991215;28;20444;-53
2021/10/21 08:52:04;;;;;;;9.88;8.98;;;15.30;99.90;;;;;;4982349;28;20218;-51
2021/10/21 08:54:32;;;;;;;14.68;9.63;;;15.40;99.90;;;;;;4988424;28;20221;-51
2021/10/21 08:57:00;;;;;;;9.82;8.43;;;15.40;99.90;;;;;;4983848;28;20202;-52
2021/10/21 08:59:28;;;;;;;9.55;8.63;;;15.50;99.90;;;;;;4996289;28;20248;-54
2021/10/21 09:02:11;;;;;;;8.38;7.47;;;15.50;99.90;;;;;;4991009;28;20211;-56
2021/10/21 09:04:59;;;;;;;10.50;9.15;;;15.60;99.90;;;;;;4994788;28;20303;-54
2021/10/21 09:10:24;;;;;;;8.20;7.40;;;15.90;99.90;;;;;;4980080;28;20204;-51
2021/10/21 09:12:52;;;;;;;9.13;7.63;;;16.10;99.90;;;;;;4989494;28;20247;-53
2021/10/21 09:15:23;;;;;;;8.98;7.32;;;16.10;99.90;;;;;;4980496;28;20238;-54
2021/10/21 09:17:51;;;;;;;15.20;9.85;;;16.10;99.90;;;;;;4990757;28;20452;-52
2021/10/21 09:20:26;;;;;;;7.10;6.33;;;16.20;99.90;;;;;;4990762;28;20207;-54
2021/10/21 09:23:00;;;;;;;8.40;7.60;;;16.30;99.90;;;;;;4993372;28;20758;-52
2021/10/21 09:25:29;;;;;;;6.23;5.73;;;16.40;99.90;;;;;;4992132;28;20612;-56
2021/10/21 09:28:04;;;;;;;7.63;6.17;;;16.50;99.90;;;;;;4986803;28;20438;-56
2021/10/21 09:30:35;;;;;;;5.80;5.30;;;16.60;99.90;;;;;;4993171;28;20635;-55
2021/10/21 09:33:03;;;;;;;6.40;5.03;;;16.70;99.90;;;;;;4989218;28;20478;-54
2021/10/21 09:35:31;;;;;;;8.03;6.67;;;16.70;99.90;;;;;;4998661;28;20619;-51
2021/10/21 09:37:58;;;;;;;5.63;5.20;;;16.80;99.90;;;;;;4988817;28;20434;-51
2021/10/21 09:40:31;;;;;;;6.70;6.13;;;16.90;99.90;;;;;;4999896;28;20450;-51
2021/10/21 09:43:00;;;;;;;9.40;6.03;;;16.90;99.90;;;;;;4984968;28;20521;-56
2021/10/21 09:45:35;;;;;;;6.67;5.70;;;17.00;99.90;;;;;;4986182;28;20944;-54
2021/10/21 09:48:05;;;;;;;5.27;4.67;;;17.10;99.90;;;;;;4994607;28;20449;-51
2021/10/21 09:50:39;;;;;;;6.47;5.83;;;17.10;99.90;;;;;;4994118;28;20468;-52
2021/10/21 09:53:28;;;;;;;5.50;5.00;;;17.00;99.90;;;;;;4995660;28;20618;-52
2021/10/21 09:56:08;;;;;;;6.13;5.60;;;17.00;99.90;;;;;;4989553;28;20423;-50
2021/10/21 09:58:37;;;;;;;5.33;4.77;;;17.00;99.90;;;;;;4986140;28;20466;-54
2021/10/21 10:01:11;;;;;;;4.37;3.97;;;17.30;99.90;;;;;;4995231;28;20415;-54
2021/10/21 10:03:44;;;;;;;3.90;3.50;;;17.50;99.90;;;;;;4988301;28;20793;-54
2021/10/21 10:06:14;;;;;;;4.60;3.33;;;17.80;99.90;;;;;;5000158;28;20409;-56
2021/10/21 10:08:41;;;;;;;3.23;3.03;;;18.10;99.90;;;;;;4992873;28;20527;-55
2021/10/21 10:11:11;;;;;;;4.03;3.73;;;18.40;99.90;;;;;;4989623;28;20487;-54
2021/10/21 10:13:44;;;;;;;3.20;2.90;;;18.50;99.90;;;;;;5003097;28;20473;-55
2021/10/21 10:16:12;;;;;;;3.63;3.20;;;18.60;99.90;;;;;;4994874;28;20403;-55
2021/10/21 10:18:44;;;;;;;8.17;4.50;;;18.70;99.90;;;;;;4990967;28;20581;-53
2021/10/21 10:21:16;;;;;;;3.80;3.60;;;19.00;99.90;;;;;;5000012;28;20411;-52
2021/10/21 10:24:07;;;;;;;3.67;3.37;;;19.10;99.90;;;;;;4991632;28;20489;-57
2021/10/21 10:26:57;;;;;;;3.60;3.40;;;19.10;99.90;;;;;;4987559;28;20476;-54
2021/10/21 10:29:36;;;;;;;4.23;3.83;;;19.10;99.90;;;;;;4996565;28;20514;-52
2021/10/21 10:32:05;;;;;;;4.80;3.43;;;19.30;99.90;;;;;;5000507;28;20758;-54
2021/10/21 10:34:33;;;;;;;3.77;3.47;;;19.40;99.90;;;;;;4988351;28;20427;-53
2021/10/21 10:37:19;;;;;;;18.03;4.00;;;19.50;99.90;;;;;;4998814;28;20450;-50
2021/10/21 10:39:51;;;;;;;3.97;3.77;;;19.60;99.90;;;;;;4982839;28;20722;-52
2021/10/21 10:42:45;;;;;;;4.47;4.17;;;19.70;99.90;;;;;;4986973;28;20418;-56
2021/10/21 10:45:43;;;;;;;7.37;4.07;;;19.90;99.90;;;;;;4982262;28;20526;-53
2021/10/21 10:48:11;;;;;;;4.13;3.77;;;20.00;99.90;;;;;;4989278;28;20625;-51
2021/10/21 10:50:44;;;;;;;8.03;3.50;;;20.20;99.90;;;;;;4989663;28;20471;-54
2021/10/21 10:53:11;;;;;;;6.27;4.13;;;20.10;99.90;;;;;;4995920;28;20717;-52
2021/10/21 10:55:40;;;;;;;4.00;3.80;;;20.10;99.40;;;;;;4997549;28;20581;-53
2021/10/21 10:58:10;;;;;;;4.00;3.70;;;20.10;98.30;;;;;;4983092;28;20705;-52
2021/10/21 11:00:59;;;;;;;3.30;3.20;;;20.20;97.30;;;;;;4994636;28;20482;-53
2021/10/21 11:03:33;;;;;;;3.77;3.47;;;20.00;96.40;;;;;;4992818;28;20833;-51
2021/10/21 11:06:06;;;;;;;3.90;3.47;;;19.80;96.00;;;;;;4999657;28;20461;-57
2021/10/21 11:09:04;;;;;;;3.40;2.77;;;19.70;96.10;;;;;;4996377;28;20519;-52
2021/10/21 11:11:58;;;;;;;3.57;3.17;;;19.70;96.80;;;;;;4981725;28;20410;-54
2021/10/21 11:14:38;;;;;;;4.83;3.80;;;20.00;95.90;;;;;;4993190;28;20538;-53
2021/10/21 11:17:09;;;;;;;3.77;3.47;;;20.10;95.10;;;;;;4985612;28;20428;-54
2021/10/21 11:19:43;;;;;;;3.50;3.40;;;20.10;95.00;;;;;;4995427;28;20785;-52
2021/10/21 11:22:19;;;;;;;7.70;3.80;;;20.10;94.60;;;;;;4995872;28;20443;-54
2021/10/21 11:24:51;;;;;;;4.90;4.23;;;20.30;93.90;;;;;;4997009;28;20526;-52
2021/10/21 11:27:25;;;;;;;4.03;3.83;;;20.20;93.30;;;;;;4989090;28;20653;-55
2021/10/21 11:29:53;;;;;;;5.27;4.70;;;20.10;93.90;;;;;;4991049;28;20447;-55
2021/10/21 11:32:21;;;;;;;3.50;3.30;;;19.90;93.60;;;;;;4992002;28;20463;-55
2021/10/21 11:34:49;;;;;;;5.47;4.60;;;19.70;94.10;;;;;;4991807;28;20512;-55
2021/10/21 11:37:39;;;;;;;3.73;3.43;;;19.60;94.50;;;;;;4993505;28;20468;-53
2021/10/21 11:40:10;;;;;;;3.47;3.27;;;19.50;94.70;;;;;;4998449;28;20447;-51
2021/10/21 11:42:38;;;;;;;3.27;3.17;;;19.40;94.90;;;;;;4993236;28;20700;-53
2021/10/21 11:45:08;;;;;;;3.60;3.30;;;19.20;95.00;;;;;;4985442;28;20484;-51
2021/10/21 11:47:37;;;;;;;3.57;3.47;;;19.10;95.70;;;;;;4996380;28;20439;-53
2021/10/21 11:50:07;;;;;;;3.80;3.30;;;19.10;95.20;;;;;;4993281;28;20440;-52
2021/10/21 11:52:44;;;;;;;3.60;3.40;;;19.00;95.30;;;;;;4998500;28;20748;-53
2021/10/21 11:55:26;;;;;;;4.67;4.30;;;18.90;95.90;;;;;;4994566;28;20430;-54
2021/10/21 11:57:57;;;;;;;5.40;3.20;;;18.80;96.50;;;;;;4998457;28;20442;-55
2021/10/21 12:00:28;;;;;;;3.67;3.40;;;18.70;96.00;;;;;;4985391;28;20752;-55
2021/10/21 12:02:59;;;;;;;10.13;3.40;;;18.70;95.50;;;;;;4994403;28;20419;-54
2021/10/21 12:05:32;;;;;;;3.90;3.60;;;18.80;95.60;;;;;;4995001;28;20429;-53
2021/10/21 12:08:00;;;;;;;4.37;3.97;;;18.90;95.30;;;;;;4996079;28;20488;-54
2021/10/21 12:10:34;;;;;;;4.30;3.90;;;19.10;94.90;;;;;;4982685;28;20492;-53
2021/10/21 12:13:04;;;;;;;3.90;3.70;;;19.30;95.10;;;;;;4992997;28;20464;-52
2021/10/21 12:15:35;;;;;;;3.43;3.33;;;19.30;94.80;;;;;;4992499;28;20430;-53
2021/10/21 12:18:10;;;;;;;3.97;3.67;;;19.20;94.60;;;;;;4995433;28;20409;-57
2021/10/21 12:20:52;;;;;;;3.70;3.50;;;19.10;94.60;;;;;;4978666;28;20461;-50
2021/10/21 12:23:27;;;;;;;4.10;3.40;;;19.20;94.90;;;;;;4985523;28;20441;-55
2021/10/21 12:26:06;;;;;;;4.17;3.50;;;19.20;95.20;;;;;;4988088;28;20483;-51
2021/10/21 12:28:46;;;;;;;3.80;3.50;;;19.10;94.90;;;;;;4984904;28;20445;-50
2021/10/21 12:31:33;;;;;;;3.90;3.60;;;19.20;94.80;;;;;;4996027;28;20463;-54
2021/10/21 12:34:02;;;;;;;14.47;4.33;;;19.10;94.30;;;;;;4985928;28;20455;-50
2021/10/21 12:36:50;;;;;;;5.77;3.30;;;19.20;94.00;;;;;;4994034;28;20635;-50
2021/10/21 12:39:22;;;;;;;6.57;3.23;;;19.10;94.60;;;;;;4988869;28;20417;-56
2021/10/21 12:42:08;;;;;;;5.80;3.80;;;19.00;94.10;;;;;;4993944;28;20813;-56
2021/10/21 12:44:40;;;;;;;3.57;3.20;;;18.80;94.10;;;;;;5018241;23;20860;-47
2021/10/21 12:47:25;;;;;;;3.43;3.33;;;18.70;94.40;;;;;;5034614;28;20415;-47
2021/10/21 12:49:54;;;;;;;3.63;3.30;;;18.50;94.80;;;;;;5029276;28;20497;-47
2021/10/21 12:52:36;;;;;;;3.37;3.17;;;18.40;95.70;;;;;;5031784;28;20416;-50
2021/10/21 12:55:13;;;;;;;3.60;3.30;;;18.30;95.40;;;;;;5030234;28;20458;-52
2021/10/21 12:57:47;;;;;;;7.60;3.67;;;18.20;95.40;;;;;;5030950;28;20411;-49